Tulsa, OK (74134)

11:57 PM CDT on September 02, 2014 (GMT -0500)
Battle Creek Golf Course | Change Station
CLOSE
Current Station
Personal Weather Station
Location: Broken Arrow, OK
Elevation: 770 ft
Nearby Weather Stations

Elev 770 ft 36.09 °N, 95.81 °W | Updated 4 seconds ago

Partly Cloudy
Partly Cloudy
71.3 °F
Feels Like 71.3 °F
N
7.0
Wind Variable Wind from ESE
Gusts 7.0 mph

Today
High -- | Low -- °F
--% Chance of Precip.
Yesterday
High -- | Low -- °F
Precip. -- in
6:55 AM 7:49 PM
First Quarter, 58% visible
Pressure 29.93 in
Visibility 10.0 miles
Clouds Scattered Clouds 10000 ft
Mostly Cloudy 25000 ft
Dew Point 67 °F
Humidity 86%
Rainfall 1.42 in
Snow Depth Not available.
UV 0 out of 12
Pollen 9.10 out of 12
Ozone Good
Flu Activity Not available.
METAR KTUL 030353Z 13005KT 10SM SCT100 BKN250 22/20 A2995 RMK AO2 SLP134 T02220200

More Conditions Fewer Conditions

Pressure 29.93 in
Visibility 10.0 miles
Clouds Scattered Clouds 10000 ft
Mostly Cloudy 25000 ft
Dew Point 67 °F
Humidity 86%
Rainfall 1.42 in
Snow Depth Not available.
UV 0 out of 12
Pollen 9.10 out of 12
Ozone Good
Flu Activity Not available.
METAR KTUL 030353Z 13005KT 10SM SCT100 BKN250 22/20 A2995 RMK AO2 SLP134 T02220200

More Conditions Fewer Conditions

10-Day Weather Forecast

Almanac

Astronomy

Sep. 02, 2014 Rise Set
Actual Time 6:55 AM CDT 7:49 PM CDT
Civil Twilight 6:29 AM CDT 8:15 PM CDT
Nautical Twilight 5:58 AM CDT 8:46 PM CDT
Astronomical Twilight 5:26 AM CDT 9:18 PM CDT
Moon 2:28 PM CDT (9/2) 12:05 AM CDT (9/2)
Length of Visible Light 13h 46m
Length of Day
12h 53m
Tomorrow will be 2m 12s shorter.
First Quarter, 58% of the Moon is Illuminated
Sep 3
First Quarter
Sep 8
Full
Sep 15
Last Quarter
Sep 24
New
Oct 1
First Quarter

Yesterday's Extremes

State Highs State Lows

Community

WunderPhotos

Upload Photos

1,749,875 photos uploaded!

Nearby

Air Quality

  Air Quality AQ Index Pollutant
Yesterday Good
OZONE
Current Good
OZONE
Tuesday Moderate
OZONE
Tuesday Good
PM2.5
Wednesday Moderate
OZONE
Wednesday Good
PM2.5

Snow Depth

Station Depth Elevation
No new snow has been reported.

Earthquake Activity

City Distance Mag. Time & Date
Perry, Oklahoma 88 miles 3.1 6:46 AM CDT
2014-09-01
Jones, Oklahoma 88 miles 3.1 1:49 PM CDT
2014-08-31
Minimum magnitude displayed is 2.5.

Coastal Water Temperatures

Place Temperature
No Stations Reporting

Nearby Weather Stations